Time;durP1;ratioP1;P1;durP2;ratioP2;P2;SDS_P1;SDS_P2;PMS_P1;PMS_P2;Temp;Humidity;BMP_temperature;BMP_pressure;BME280_temperature;BME280_humidity;BME280_pressure;Samples;Min_cycle;Max_cycle;Signal;HPM_P1;HPM_P2
2023/08/28 00:01:15;;;;;;;6.20;5.80;;;;;;;;;;5034188;28;20434;-70
2023/08/28 00:03:42;;;;;;;6.17;5.93;;;;;;;;;;5033376;28;20960;-71
2023/08/28 00:06:08;;;;;;;5.87;5.60;;;;;;;;;;5033666;28;20434;-71
2023/08/28 00:08:35;;;;;;;6.93;6.47;;;;;;;;;;5048651;28;20533;-71
2023/08/28 00:11:02;;;;;;;5.43;5.13;;;;;;;;;;5037416;28;20442;-70
2023/08/28 00:16:04;;;;;;;6.10;6.00;;;;;;;;;;5064816;23;20492;-71
2023/08/28 00:18:30;;;;;;;6.63;6.23;;;;;;;;;;5027416;28;20837;-70
2023/08/28 00:20:56;;;;;;;5.80;5.70;;;;;;;;;;5047463;28;20481;-71
2023/08/28 00:23:22;;;;;;;5.50;5.50;;;;;;;;;;5046751;28;20532;-70
2023/08/28 00:25:48;;;;;;;6.37;6.13;;;;;;;;;;5047126;28;20528;-71
2023/08/28 00:28:14;;;;;;;5.73;5.53;;;;;;;;;;5047429;28;20463;-70
2023/08/28 00:30:40;;;;;;;6.37;5.87;;;;;;;;;;5019674;28;20457;-72
2023/08/28 00:33:06;;;;;;;6.90;6.17;;;;;;;;;;5042188;28;20536;-71
2023/08/28 00:35:32;;;;;;;6.67;6.37;;;;;;;;;;5050679;28;20732;-70
2023/08/28 00:37:58;;;;;;;5.77;5.47;;;;;;;;;;5048683;28;20477;-71
2023/08/28 00:40:24;;;;;;;6.37;6.17;;;;;;;;;;5040442;28;20513;-71
2023/08/28 00:42:50;;;;;;;14.13;6.70;;;;;;;;;;5047819;28;20465;-71
2023/08/28 00:45:16;;;;;;;6.60;6.23;;;;;;;;;;5038579;28;20442;-71
2023/08/28 00:47:44;;;;;;;6.33;6.13;;;;;;;;;;5050343;28;20445;-70
2023/08/28 00:50:10;;;;;;;5.53;5.40;;;;;;;;;;5042177;28;20528;-70
2023/08/28 00:52:36;;;;;;;6.17;5.87;;;;;;;;;;5040418;28;20745;-72
2023/08/28 00:55:03;;;;;;;7.80;6.20;;;;;;;;;;5051839;28;20927;-70
2023/08/28 00:57:29;;;;;;;5.83;5.73;;;;;;;;;;5031894;28;20457;-70
2023/08/28 00:59:56;;;;;;;5.87;5.77;;;;;;;;;;5031923;28;20441;-70
2023/08/28 01:02:22;;;;;;;6.43;6.20;;;;;;;;;;5027739;28;20910;-70
2023/08/28 01:04:47;;;;;;;5.47;5.30;;;;;;;;;;5048459;28;20554;-71
2023/08/28 01:07:18;;;;;;;5.80;5.70;;;;;;;;;;5027454;28;20418;-70
2023/08/28 01:09:59;;;;;;;6.53;6.00;;;;;;;;;;5045541;28;20444;-69
2023/08/28 01:12:44;;;;;;;6.07;5.87;;;;;;;;;;5015213;28;20408;-70
2023/08/28 01:15:21;;;;;;;5.50;5.40;;;;;;;;;;5046748;28;20453;-71
2023/08/28 01:17:49;;;;;;;8.10;5.00;;;;;;;;;;5055698;28;20483;-71
2023/08/28 01:20:16;;;;;;;5.03;4.80;;;;;;;;;;5037757;28;20441;-71
2023/08/28 01:22:46;;;;;;;5.57;5.37;;;;;;;;;;5035930;28;20484;-71
2023/08/28 01:25:12;;;;;;;6.33;5.77;;;;;;;;;;5049600;28;20698;-71
2023/08/28 01:27:38;;;;;;;6.73;6.53;;;;;;;;;;5036402;28;20457;-72
2023/08/28 01:30:05;;;;;;;6.20;6.07;;;;;;;;;;5057415;28;20924;-71
2023/08/28 01:32:31;;;;;;;7.27;7.00;;;;;;;;;;5027876;28;20445;-71
2023/08/28 01:34:57;;;;;;;7.93;7.30;;;;;;;;;;5039809;28;20923;-71
2023/08/28 01:37:26;;;;;;;9.10;8.63;;;;;;;;;;5037025;28;20489;-71
2023/08/28 01:39:52;;;;;;;9.40;8.90;;;;;;;;;;5054811;28;20459;-71
2023/08/28 01:42:19;;;;;;;9.17;8.80;;;;;;;;;;5038307;28;20479;-71
2023/08/28 01:44:45;;;;;;;9.27;8.57;;;;;;;;;;5037989;28;20724;-71
2023/08/28 01:47:13;;;;;;;7.83;7.43;;;;;;;;;;5032582;28;20929;-71
2023/08/28 01:49:39;;;;;;;8.03;7.63;;;;;;;;;;5062178;28;20434;-71
2023/08/28 01:52:06;;;;;;;7.30;6.80;;;;;;;;;;5033427;28;21037;-70
2023/08/28 01:54:32;;;;;;;8.17;7.77;;;;;;;;;;5041278;28;20874;-70
2023/08/28 01:56:58;;;;;;;9.60;8.80;;;;;;;;;;5027250;28;20462;-71
2023/08/28 01:59:24;;;;;;;8.13;7.70;;;;;;;;;;5061431;28;21004;-70
2023/08/28 02:01:50;;;;;;;8.23;7.77;;;;;;;;;;5039890;28;20567;-71
2023/08/28 02:04:17;;;;;;;8.73;8.13;;;;;;;;;;5044725;28;20535;-71
2023/08/28 02:06:43;;;;;;;8.40;7.80;;;;;;;;;;5033218;28;20435;-70
2023/08/28 02:09:09;;;;;;;8.40;7.90;;;;;;;;;;5043991;28;20445;-71
2023/08/28 02:11:35;;;;;;;8.23;7.83;;;;;;;;;;5045683;28;20449;-70
2023/08/28 02:14:01;;;;;;;7.37;6.97;;;;;;;;;;5043246;28;20925;-71
2023/08/28 02:16:27;;;;;;;8.93;8.33;;;;;;;;;;5030661;28;20460;-70
2023/08/28 02:18:53;;;;;;;8.03;7.70;;;;;;;;;;5030608;28;20430;-70
2023/08/28 02:21:19;;;;;;;9.40;8.70;;;;;;;;;;5034510;28;20451;-70
2023/08/28 02:23:45;;;;;;;8.80;8.20;;;;;;;;;;5040005;28;20438;-70
2023/08/28 02:26:10;;;;;;;10.00;9.47;;;;;;;;;;5042731;28;20788;-70
2023/08/28 02:28:37;;;;;;;9.50;8.73;;;;;;;;;;5041232;28;20786;-70
2023/08/28 02:31:03;;;;;;;9.87;9.30;;;;;;;;;;5038943;28;20507;-70
2023/08/28 02:33:29;;;;;;;8.90;8.43;;;;;;;;;;5051700;28;20968;-70
2023/08/28 02:35:55;;;;;;;8.80;8.40;;;;;;;;;;5033740;28;20544;-71
2023/08/28 02:38:21;;;;;;;9.57;8.97;;;;;;;;;;5042593;28;20983;-70
2023/08/28 02:40:47;;;;;;;8.53;8.03;;;;;;;;;;5045910;28;20454;-70
2023/08/28 02:43:13;;;;;;;9.80;9.10;;;;;;;;;;5046471;28;20449;-70
2023/08/28 02:45:40;;;;;;;9.00;8.60;;;;;;;;;;5035092;28;20691;-70
2023/08/28 02:48:06;;;;;;;9.47;8.87;;;;;;;;;;5053288;28;20469;-70
2023/08/28 02:50:32;;;;;;;10.33;9.33;;;;;;;;;;5030190;28;20461;-71
2023/08/28 02:52:58;;;;;;;9.17;8.67;;;;;;;;;;5045120;28;20495;-71
2023/08/28 02:55:24;;;;;;;9.50;9.00;;;;;;;;;;5046831;28;20442;-71
2023/08/28 02:57:50;;;;;;;10.27;9.70;;;;;;;;;;5033202;28;20789;-71
2023/08/28 03:00:18;;;;;;;9.90;9.40;;;;;;;;;;5036097;28;20457;-71
2023/08/28 03:02:44;;;;;;;9.93;9.47;;;;;;;;;;5043379;28;20943;-71
2023/08/28 03:05:10;;;;;;;11.17;10.47;;;;;;;;;;5017083;28;20849;-70
2023/08/28 03:07:37;;;;;;;10.27;9.70;;;;;;;;;;5021802;28;20508;-70
2023/08/28 03:10:03;;;;;;;10.73;9.83;;;;;;;;;;5043018;28;21037;-71
2023/08/28 03:12:29;;;;;;;9.93;9.23;;;;;;;;;;5036706;28;20452;-71
2023/08/28 03:14:56;;;;;;;11.07;10.37;;;;;;;;;;5031045;28;20965;-71
2023/08/28 03:17:22;;;;;;;9.53;8.97;;;;;;;;;;5034138;28;21036;-70
2023/08/28 03:19:48;;;;;;;10.70;9.83;;;;;;;;;;5046126;28;20834;-72
2023/08/28 03:22:14;;;;;;;10.40;9.70;;;;;;;;;;5035657;28;20421;-71
2023/08/28 03:24:40;;;;;;;11.83;10.90;;;;;;;;;;5044419;28;20476;-71
2023/08/28 03:27:07;;;;;;;11.83;11.13;;;;;;;;;;5042280;28;20458;-70
2023/08/28 03:29:33;;;;;;;12.50;11.57;;;;;;;;;;5043597;28;20810;-71
2023/08/28 03:31:59;;;;;;;11.80;11.00;;;;;;;;;;5042851;28;20421;-70
2023/08/28 03:34:25;;;;;;;12.20;11.43;;;;;;;;;;5041111;28;20461;-70
2023/08/28 03:36:51;;;;;;;12.77;11.63;;;;;;;;;;5042708;28;20564;-71
2023/08/28 03:39:17;;;;;;;12.87;11.77;;;;;;;;;;5045542;28;20458;-72
2023/08/28 03:41:43;;;;;;;13.50;12.50;;;;;;;;;;5044315;28;20506;-70
2023/08/28 03:44:09;;;;;;;12.30;11.50;;;;;;;;;;5045599;28;20437;-70
2023/08/28 03:46:35;;;;;;;13.27;12.13;;;;;;;;;;5048649;28;20803;-71
2023/08/28 03:49:01;;;;;;;14.30;13.17;;;;;;;;;;5044500;28;20476;-70
2023/08/28 03:51:27;;;;;;;14.10;13.00;;;;;;;;;;5033177;28;20414;-71
2023/08/28 03:53:53;;;;;;;14.03;12.93;;;;;;;;;;5044410;28;20524;-70
2023/08/28 03:56:19;;;;;;;13.77;12.83;;;;;;;;;;5043759;28;20473;-70
2023/08/28 03:58:45;;;;;;;13.17;12.27;;;;;;;;;;5043279;28;20534;-70
2023/08/28 04:01:11;;;;;;;13.50;12.53;;;;;;;;;;5039051;28;20452;-71
2023/08/28 04:03:37;;;;;;;15.10;13.83;;;;;;;;;;5039783;28;20434;-71
2023/08/28 04:06:03;;;;;;;15.50;14.20;;;;;;;;;;5007447;28;20526;-72
2023/08/28 04:08:29;;;;;;;15.07;13.80;;;;;;;;;;5039556;28;20469;-71
2023/08/28 04:10:57;;;;;;;15.10;14.00;;;;;;;;;;5017863;28;20786;-72
2023/08/28 04:13:23;;;;;;;14.93;13.90;;;;;;;;;;5033871;28;20962;-70
2023/08/28 04:15:49;;;;;;;16.40;15.10;;;;;;;;;;5041263;28;20474;-70
2023/08/28 04:18:15;;;;;;;16.70;15.43;;;;;;;;;;5046914;28;20504;-71
2023/08/28 04:20:41;;;;;;;15.90;14.70;;;;;;;;;;5020478;28;20792;-71
2023/08/28 04:23:07;;;;;;;16.70;15.00;;;;;;;;;;5042676;28;20460;-70
2023/08/28 04:25:33;;;;;;;16.53;15.33;;;;;;;;;;5047727;28;20452;-70
2023/08/28 04:27:59;;;;;;;16.23;15.03;;;;;;;;;;5046115;28;20484;-71
2023/08/28 04:30:25;;;;;;;17.40;16.10;;;;;;;;;;5040284;28;20461;-71
2023/08/28 04:32:51;;;;;;;17.97;16.43;;;;;;;;;;5035767;28;20793;-71
2023/08/28 04:35:17;;;;;;;17.80;16.20;;;;;;;;;;5042911;28;20446;-70
2023/08/28 04:37:43;;;;;;;17.73;16.23;;;;;;;;;;5051541;28;20437;-71
2023/08/28 04:40:09;;;;;;;18.77;17.23;;;;;;;;;;5044098;28;20574;-71
2023/08/28 04:42:35;;;;;;;17.97;16.40;;;;;;;;;;5031833;28;21007;-71
2023/08/28 04:45:01;;;;;;;18.00;16.60;;;;;;;;;;5043385;28;20471;-71
2023/08/28 04:47:27;;;;;;;18.17;16.43;;;;;;;;;;5024011;28;20465;-74
2023/08/28 04:49:53;;;;;;;17.43;15.90;;;;;;;;;;5046797;28;20809;-72
2023/08/28 04:52:20;;;;;;;16.60;14.97;;;;;;;;;;5039309;28;20421;-72
2023/08/28 04:54:46;;;;;;;17.80;16.30;;;;;;;;;;5036746;28;20874;-72
2023/08/28 04:57:12;;;;;;;19.33;17.63;;;;;;;;;;5032340;28;20470;-71
2023/08/28 04:59:38;;;;;;;19.70;18.07;;;;;;;;;;5039328;28;20442;-71
2023/08/28 05:02:04;;;;;;;17.27;15.83;;;;;;;;;;5036847;28;20552;-71
2023/08/28 05:04:30;;;;;;;18.23;16.50;;;;;;;;;;5021698;28;20706;-72
2023/08/28 05:06:56;;;;;;;18.17;16.30;;;;;;;;;;5034907;28;20468;-72
2023/08/28 05:09:22;;;;;;;16.43;15.03;;;;;;;;;;5036223;28;20446;-72
2023/08/28 05:11:48;;;;;;;17.27;15.80;;;;;;;;;;5030652;28;20441;-72
2023/08/28 05:14:14;;;;;;;17.53;16.07;;;;;;;;;;5017542;28;20463;-71
2023/08/28 05:16:40;;;;;;;16.20;14.90;;;;;;;;;;5041986;28;20540;-71
2023/08/28 05:19:06;;;;;;;19.43;17.50;;;;;;;;;;5032016;28;20434;-71
2023/08/28 05:21:32;;;;;;;17.20;15.50;;;;;;;;;;5040149;28;20524;-71
2023/08/28 05:23:58;;;;;;;16.57;15.27;;;;;;;;;;5020801;28;20435;-72
2023/08/28 05:26:24;;;;;;;16.23;15.00;;;;;;;;;;5025916;28;20456;-70
2023/08/28 05:28:51;;;;;;;15.20;14.00;;;;;;;;;;5032123;28;20756;-71
2023/08/28 05:31:17;;;;;;;15.83;14.30;;;;;;;;;;5037092;28;20446;-71
2023/08/28 05:33:42;;;;;;;15.20;14.10;;;;;;;;;;5034057;28;20423;-71
2023/08/28 05:36:08;;;;;;;16.70;15.30;;;;;;;;;;5046438;28;20441;-72
2023/08/28 05:38:35;;;;;;;15.90;14.70;;;;;;;;;;5029548;28;20466;-70
2023/08/28 05:41:01;;;;;;;15.10;13.90;;;;;;;;;;5056963;28;20453;-72
2023/08/28 05:43:27;;;;;;;15.13;13.80;;;;;;;;;;5035731;28;20422;-72
2023/08/28 05:45:53;;;;;;;14.27;13.17;;;;;;;;;;5034443;28;20489;-70
2023/08/28 05:48:18;;;;;;;16.77;15.27;;;;;;;;;;5037262;28;20616;-73
2023/08/28 05:50:45;;;;;;;13.67;12.63;;;;;;;;;;5037486;28;20780;-72
2023/08/28 05:53:11;;;;;;;14.17;13.07;;;;;;;;;;5031364;28;20421;-72
2023/08/28 05:55:37;;;;;;;13.17;12.00;;;;;;;;;;5046776;28;21024;-70
2023/08/28 05:58:03;;;;;;;11.03;10.03;;;;;;;;;;5038382;28;20679;-71
2023/08/28 06:00:29;;;;;;;11.77;11.00;;;;;;;;;;5051581;28;20937;-72
2023/08/28 06:02:55;;;;;;;49.33;39.70;;;;;;;;;;5036095;28;20449;-72
2023/08/28 06:05:21;;;;;;;12.90;12.00;;;;;;;;;;5044679;28;20459;-73
2023/08/28 06:07:47;;;;;;;11.20;10.30;;;;;;;;;;5020209;28;20458;-73
2023/08/28 06:10:17;;;;;;;10.50;9.60;;;;;;;;;;5038748;28;20763;-73
2023/08/28 06:12:43;;;;;;;12.20;11.17;;;;;;;;;;5038434;28;20768;-73
2023/08/28 06:15:10;;;;;;;11.00;10.30;;;;;;;;;;5037890;28;20520;-72
2023/08/28 06:17:37;;;;;;;13.63;11.23;;;;;;;;;;5029004;28;20712;-73
2023/08/28 06:20:04;;;;;;;12.97;11.87;;;;;;;;;;5032051;28;20464;-73
2023/08/28 06:22:30;;;;;;;10.37;9.40;;;;;;;;;;5014440;28;20426;-73
2023/08/28 06:24:56;;;;;;;11.53;8.83;;;;;;;;;;5017303;28;20541;-72
2023/08/28 06:27:22;;;;;;;9.30;8.50;;;;;;;;;;5029836;28;20559;-72
2023/08/28 06:29:48;;;;;;;9.47;8.77;;;;;;;;;;5033017;28;20812;-73
2023/08/28 06:32:14;;;;;;;10.50;8.77;;;;;;;;;;5011344;28;20433;-73
2023/08/28 06:34:40;;;;;;;9.43;8.83;;;;;;;;;;5034496;28;20804;-73
2023/08/28 06:37:06;;;;;;;9.37;8.83;;;;;;;;;;5024098;28;20525;-72
2023/08/28 06:39:32;;;;;;;8.50;7.90;;;;;;;;;;5026073;28;20446;-72
2023/08/28 06:41:58;;;;;;;8.07;7.60;;;;;;;;;;5023519;28;20432;-72
2023/08/28 06:44:25;;;;;;;9.43;8.63;;;;;;;;;;5035015;28;20447;-72
2023/08/28 06:46:51;;;;;;;9.03;8.20;;;;;;;;;;5027470;28;20759;-72
2023/08/28 06:49:20;;;;;;;9.37;8.77;;;;;;;;;;5038392;28;20442;-72
2023/08/28 06:51:47;;;;;;;9.77;8.87;;;;;;;;;;5032227;28;20453;-72
2023/08/28 06:54:16;;;;;;;9.37;8.60;;;;;;;;;;5035852;28;20433;-73
2023/08/28 06:56:42;;;;;;;7.77;7.30;;;;;;;;;;5027812;28;20549;-72
2023/08/28 06:59:08;;;;;;;7.77;7.07;;;;;;;;;;5029933;28;20442;-71
2023/08/28 07:01:34;;;;;;;7.50;7.00;;;;;;;;;;5036226;28;20432;-72
2023/08/28 07:04:00;;;;;;;11.20;6.70;;;;;;;;;;5036433;28;20432;-72
2023/08/28 07:06:26;;;;;;;6.57;6.37;;;;;;;;;;5013356;28;20635;-72
2023/08/28 07:08:52;;;;;;;6.43;6.23;;;;;;;;;;5034144;28;20653;-72
2023/08/28 07:11:18;;;;;;;6.80;6.30;;;;;;;;;;5037484;28;20461;-73
2023/08/28 07:13:44;;;;;;;6.03;5.83;;;;;;;;;;5037874;28;21010;-71
2023/08/28 07:16:10;;;;;;;6.40;6.10;;;;;;;;;;5031796;28;20562;-71
2023/08/28 07:18:36;;;;;;;6.50;6.10;;;;;;;;;;5029353;28;20442;-71
2023/08/28 07:21:02;;;;;;;7.13;6.83;;;;;;;;;;5021930;28;20551;-71
2023/08/28 07:23:28;;;;;;;7.20;6.80;;;;;;;;;;5026066;28;20592;-71
2023/08/28 07:25:56;;;;;;;7.40;7.00;;;;;;;;;;5031057;28;20805;-73
2023/08/28 07:28:22;;;;;;;6.43;6.23;;;;;;;;;;5029023;28;20461;-71
2023/08/28 07:30:48;;;;;;;9.13;8.43;;;;;;;;;;5028219;28;20445;-72
2023/08/28 07:33:13;;;;;;;7.37;7.00;;;;;;;;;;5014188;28;20589;-73
2023/08/28 07:35:42;;;;;;;8.50;7.80;;;;;;;;;;5032669;28;20448;-72
2023/08/28 07:38:08;;;;;;;6.47;6.27;;;;;;;;;;5029186;28;20740;-72
2023/08/28 07:40:35;;;;;;;7.60;7.03;;;;;;;;;;5026125;28;20830;-73
2023/08/28 07:43:01;;;;;;;8.43;7.83;;;;;;;;;;5030693;28;20452;-73
2023/08/28 07:45:27;;;;;;;7.03;6.57;;;;;;;;;;5028579;28;20472;-73
2023/08/28 07:47:53;;;;;;;7.87;7.30;;;;;;;;;;5032649;28;20465;-71
2023/08/28 07:50:19;;;;;;;7.50;7.10;;;;;;;;;;5038797;28;20446;-71
2023/08/28 07:52:45;;;;;;;7.23;6.60;;;;;;;;;;5015786;28;20445;-71
2023/08/28 07:55:11;;;;;;;7.97;7.40;;;;;;;;;;5008941;28;20466;-72
2023/08/28 07:57:37;;;;;;;8.33;7.83;;;;;;;;;;5026197;28;20424;-71
2023/08/28 08:00:09;;;;;;;7.90;7.60;;;;;;;;;;5025001;28;20444;-71
2023/08/28 08:02:35;;;;;;;7.83;7.43;;;;;;;;;;5030931;28;20466;-71
2023/08/28 08:05:01;;;;;;;7.60;7.10;;;;;;;;;;5028818;28;20505;-71
2023/08/28 08:07:27;;;;;;;8.03;7.63;;;;;;;;;;5025701;28;20522;-71
2023/08/28 08:09:53;;;;;;;7.97;7.43;;;;;;;;;;5026879;28;20515;-70
2023/08/28 08:12:19;;;;;;;9.67;9.17;;;;;;;;;;5034176;28;20445;-70
2023/08/28 08:14:45;;;;;;;9.80;9.00;;;;;;;;;;5023750;28;20883;-70
2023/08/28 08:17:12;;;;;;;8.43;8.03;;;;;;;;;;5034186;28;20456;-69
2023/08/28 08:19:38;;;;;;;9.73;9.00;;;;;;;;;;5031069;28;20445;-70
2023/08/28 08:22:04;;;;;;;10.53;9.83;;;;;;;;;;5033010;28;20559;-71
2023/08/28 08:24:30;;;;;;;11.57;10.60;;;;;;;;;;5019199;28;21071;-70
2023/08/28 08:26:56;;;;;;;10.43;9.93;;;;;;;;;;5031661;28;20464;-71
2023/08/28 08:29:22;;;;;;;10.73;9.97;;;;;;;;;;5025919;28;20537;-72
2023/08/28 08:31:50;;;;;;;11.43;10.73;;;;;;;;;;5036018;28;20785;-71
2023/08/28 08:34:18;;;;;;;12.70;11.60;;;;;;;;;;5025986;28;20450;-72
2023/08/28 08:36:44;;;;;;;12.30;11.43;;;;;;;;;;5035659;28;20518;-71
2023/08/28 08:39:10;;;;;;;13.80;12.90;;;;;;;;;;5036690;28;21033;-74
2023/08/28 08:41:39;;;;;;;14.30;13.40;;;;;;;;;;5023432;28;20460;-73
2023/08/28 08:44:05;;;;;;;11.33;10.43;;;;;;;;;;5042372;28;20441;-74
2023/08/28 08:46:31;;;;;;;12.50;11.50;;;;;;;;;;5022358;28;20473;-72
2023/08/28 08:49:00;;;;;;;10.60;9.70;;;;;;;;;;5040652;28;20954;-72
2023/08/28 08:51:29;;;;;;;9.63;9.17;;;;;;;;;;5036710;28;20674;-73
2023/08/28 08:54:04;;;;;;;9.57;9.10;;;;;;;;;;5020751;28;20439;-73
2023/08/28 08:56:31;;;;;;;9.90;9.20;;;;;;;;;;5024668;28;20813;-73
2023/08/28 08:58:58;;;;;;;9.70;9.10;;;;;;;;;;5027623;28;20443;-74
2023/08/28 09:01:24;;;;;;;10.57;9.80;;;;;;;;;;5025358;28;20450;-72
2023/08/28 09:03:51;;;;;;;10.10;9.50;;;;;;;;;;5017293;28;20949;-72
2023/08/28 09:06:17;;;;;;;8.07;7.57;;;;;;;;;;5022023;28;20464;-73
2023/08/28 09:08:43;;;;;;;11.40;10.70;;;;;;;;;;5028412;28;21340;-73
2023/08/28 09:11:09;;;;;;;10.20;9.70;;;;;;;;;;5044348;28;20439;-75
2023/08/28 09:13:35;;;;;;;10.03;9.43;;;;;;;;;;5008288;28;20470;-73
2023/08/28 09:16:03;;;;;;;10.13;9.63;;;;;;;;;;5015940;28;20466;-73
2023/08/28 09:18:29;;;;;;;9.27;8.73;;;;;;;;;;5002465;28;20805;-71
2023/08/28 09:21:07;;;;;;;11.37;10.33;;;;;;;;;;5027306;28;20694;-71
2023/08/28 09:23:33;;;;;;;7.67;7.10;;;;;;;;;;5013223;28;20881;-71
2023/08/28 09:25:59;;;;;;;10.87;9.87;;;;;;;;;;5027770;28;20674;-71
2023/08/28 09:28:25;;;;;;;11.50;10.60;;;;;;;;;;5028123;28;20478;-71
2023/08/28 09:30:51;;;;;;;11.77;10.90;;;;;;;;;;5017296;28;20456;-71
2023/08/28 09:33:17;;;;;;;15.50;14.03;;;;;;;;;;5024624;28;20790;-71
2023/08/28 09:35:44;;;;;;;11.07;10.33;;;;;;;;;;5025238;28;20446;-72
2023/08/28 09:38:11;;;;;;;12.60;11.80;;;;;;;;;;5030108;28;20438;-73
2023/08/28 09:40:41;;;;;;;10.63;10.03;;;;;;;;;;5039253;28;20445;-73
2023/08/28 09:43:15;;;;;;;9.43;8.73;;;;;;;;;;5037399;28;20531;-72
2023/08/28 09:45:41;;;;;;;10.30;9.63;;;;;;;;;;5036322;28;20512;-73
2023/08/28 09:48:08;;;;;;;12.57;11.53;;;;;;;;;;5022067;28;21018;-72
2023/08/28 09:50:34;;;;;;;12.63;11.40;;;;;;;;;;5039978;28;20441;-73
2023/08/28 09:53:13;;;;;;;9.00;8.40;;;;;;;;;;5049281;28;20458;-72
2023/08/28 09:55:39;;;;;;;9.57;9.00;;;;;;;;;;5039210;28;20451;-72
2023/08/28 09:58:09;;;;;;;12.00;11.00;;;;;;;;;;5039091;28;20437;-73
2023/08/28 10:00:36;;;;;;;10.60;10.00;;;;;;;;;;5014912;28;20618;-72
2023/08/28 10:03:03;;;;;;;9.50;9.00;;;;;;;;;;5040183;28;20537;-72
2023/08/28 10:05:29;;;;;;;9.30;8.70;;;;;;;;;;5020574;28;20480;-74
2023/08/28 10:08:01;;;;;;;10.20;9.40;;;;;;;;;;5031799;28;20555;-71
2023/08/28 10:10:27;;;;;;;11.40;10.50;;;;;;;;;;5035894;28;20957;-71
2023/08/28 10:12:54;;;;;;;10.07;9.30;;;;;;;;;;5050811;28;20441;-72
2023/08/28 10:15:20;;;;;;;9.53;8.93;;;;;;;;;;5046668;28;21150;-71
2023/08/28 10:17:47;;;;;;;9.93;8.70;;;;;;;;;;5047250;28;20445;-72
2023/08/28 10:20:14;;;;;;;7.97;7.53;;;;;;;;;;5018811;28;20414;-72
2023/08/28 10:22:41;;;;;;;7.97;7.47;;;;;;;;;;5033227;28;20469;-72
2023/08/28 10:25:07;;;;;;;9.50;8.70;;;;;;;;;;5044953;28;20487;-71
2023/08/28 10:27:33;;;;;;;6.70;6.20;;;;;;;;;;5040334;28;20543;-71
2023/08/28 10:30:00;;;;;;;8.13;7.70;;;;;;;;;;5035878;28;20438;-71
2023/08/28 10:32:26;;;;;;;8.40;8.00;;;;;;;;;;5042503;28;20418;-72
2023/08/28 10:34:52;;;;;;;7.20;6.80;;;;;;;;;;5021929;28;20710;-73
2023/08/28 10:37:18;;;;;;;7.03;6.67;;;;;;;;;;5047412;28;20513;-72
2023/08/28 10:39:44;;;;;;;6.43;6.03;;;;;;;;;;5038955;28;20441;-75
2023/08/28 10:42:12;;;;;;;8.93;8.20;;;;;;;;;;5035779;28;20786;-73
2023/08/28 10:44:38;;;;;;;8.23;7.83;;;;;;;;;;5032129;28;20495;-74
2023/08/28 10:47:05;;;;;;;6.63;6.33;;;;;;;;;;5042124;28;20502;-73
2023/08/28 10:49:32;;;;;;;7.00;6.60;;;;;;;;;;5049959;28;20445;-72
2023/08/28 10:52:03;;;;;;;8.33;7.90;;;;;;;;;;5034205;28;20434;-75
2023/08/28 10:54:37;;;;;;;9.30;8.80;;;;;;;;;;5039978;28;20449;-72
2023/08/28 10:57:12;;;;;;;10.50;9.90;;;;;;;;;;5021587;28;20443;-71
2023/08/28 10:59:44;;;;;;;9.50;8.80;;;;;;;;;;5038771;28;20428;-72
2023/08/28 11:02:10;;;;;;;9.03;8.53;;;;;;;;;;5018878;28;20865;-73
2023/08/28 11:04:37;;;;;;;8.30;7.80;;;;;;;;;;5042138;28;20464;-73
2023/08/28 11:07:04;;;;;;;7.77;7.33;;;;;;;;;;5040171;28;20497;-72
2023/08/28 11:09:31;;;;;;;7.33;6.97;;;;;;;;;;5042064;28;20453;-72
2023/08/28 11:12:00;;;;;;;6.87;6.63;;;;;;;;;;5039499;28;20450;-72
2023/08/28 11:14:26;;;;;;;10.73;9.40;;;;;;;;;;5042363;28;20449;-72
2023/08/28 11:17:08;;;;;;;12.10;9.27;;;;;;;;;;5023594;28;20525;-73
2023/08/28 11:22:29;;;;;;;8.37;7.83;;;;;;;;;;5031264;28;20933;-73
2023/08/28 11:24:55;;;;;;;14.67;8.40;;;;;;;;;;5043068;28;20798;-73
2023/08/28 11:27:42;;;;;;;6.27;6.07;;;;;;;;;;5050400;28;21066;-74
2023/08/28 11:30:09;;;;;;;7.03;6.63;;;;;;;;;;5031452;28;20461;-72
2023/08/28 11:32:36;;;;;;;7.47;6.90;;;;;;;;;;5033458;28;20448;-73
2023/08/28 11:35:08;;;;;;;8.03;7.63;;;;;;;;;;5051192;28;20573;-73
2023/08/28 11:37:35;;;;;;;6.80;6.40;;;;;;;;;;5037337;28;20525;-72
2023/08/28 11:40:06;;;;;;;6.40;6.20;;;;;;;;;;5035801;28;21003;-71
2023/08/28 11:42:33;;;;;;;8.77;8.17;;;;;;;;;;5036388;28;20421;-72
2023/08/28 11:44:59;;;;;;;8.97;8.43;;;;;;;;;;5043820;28;20434;-72
2023/08/28 11:47:30;;;;;;;8.43;8.03;;;;;;;;;;5039494;28;20464;-74
2023/08/28 11:49:57;;;;;;;7.27;7.07;;;;;;;;;;5037510;28;20464;-71
2023/08/28 11:52:24;;;;;;;8.43;7.73;;;;;;;;;;5035359;28;20465;-73
2023/08/28 11:54:50;;;;;;;7.57;7.27;;;;;;;;;;5037945;28;21252;-73
2023/08/28 11:57:17;;;;;;;7.83;7.50;;;;;;;;;;5041739;28;20474;-71
2023/08/28 11:59:44;;;;;;;8.53;8.13;;;;;;;;;;5032967;28;20476;-73
2023/08/28 12:02:11;;;;;;;7.30;7.00;;;;;;;;;;5033736;28;20440;-73
2023/08/28 12:04:37;;;;;;;6.87;6.57;;;;;;;;;;5015029;28;20455;-73
2023/08/28 12:07:06;;;;;;;6.67;6.50;;;;;;;;;;5016113;28;20579;-73
2023/08/28 12:09:32;;;;;;;7.73;7.40;;;;;;;;;;5019404;28;20917;-71
2023/08/28 12:11:59;;;;;;;8.27;7.60;;;;;;;;;;5021081;28;20689;-69
2023/08/28 12:14:26;;;;;;;7.47;7.07;;;;;;;;;;5043984;28;20448;-71
2023/08/28 12:16:59;;;;;;;7.13;6.93;;;;;;;;;;5034314;28;20421;-72
2023/08/28 12:19:25;;;;;;;7.23;6.93;;;;;;;;;;5031943;28;20421;-72
2023/08/28 12:21:51;;;;;;;6.83;6.53;;;;;;;;;;5041646;28;20442;-72
2023/08/28 12:24:17;;;;;;;8.20;7.90;;;;;;;;;;5034957;28;20425;-73
2023/08/28 12:26:44;;;;;;;6.77;6.43;;;;;;;;;;5038189;28;20957;-73
2023/08/28 12:29:10;;;;;;;7.43;6.93;;;;;;;;;;5041212;28;20936;-71
2023/08/28 12:31:37;;;;;;;6.93;6.53;;;;;;;;;;5045807;28;20858;-72
2023/08/28 12:34:06;;;;;;;6.20;6.10;;;;;;;;;;5040264;28;20443;-72
2023/08/28 12:36:36;;;;;;;6.23;6.00;;;;;;;;;;5015776;28;20450;-73
2023/08/28 12:39:03;;;;;;;6.37;6.17;;;;;;;;;;5033623;28;20541;-71
2023/08/28 12:41:34;;;;;;;6.73;6.50;;;;;;;;;;5038468;28;20438;-70
2023/08/28 12:44:03;;;;;;;7.13;6.60;;;;;;;;;;5038801;28;20903;-70
2023/08/28 12:46:29;;;;;;;9.23;8.70;;;;;;;;;;5043112;28;20541;-72
2023/08/28 12:48:55;;;;;;;9.60;9.07;;;;;;;;;;5034450;28;20884;-70
2023/08/28 12:51:22;;;;;;;8.87;8.30;;;;;;;;;;5016913;28;20453;-70
2023/08/28 12:53:48;;;;;;;9.20;8.70;;;;;;;;;;5043795;28;20438;-72
2023/08/28 12:56:16;;;;;;;8.07;7.57;;;;;;;;;;5036872;28;20857;-70
2023/08/28 12:58:42;;;;;;;9.93;9.30;;;;;;;;;;5036837;28;20933;-72
2023/08/28 13:01:08;;;;;;;9.97;9.57;;;;;;;;;;5022669;28;20521;-71
2023/08/28 13:03:34;;;;;;;9.47;9.07;;;;;;;;;;5031084;28;20892;-71
2023/08/28 13:06:01;;;;;;;11.13;10.30;;;;;;;;;;5037117;28;20444;-71
2023/08/28 13:08:27;;;;;;;10.03;9.40;;;;;;;;;;5032641;28;20457;-69
2023/08/28 13:10:53;;;;;;;10.93;10.20;;;;;;;;;;5036958;28;21050;-72
2023/08/28 13:13:19;;;;;;;10.73;10.00;;;;;;;;;;5029015;28;20514;-72
2023/08/28 13:15:47;;;;;;;11.73;10.93;;;;;;;;;;5042617;28;20552;-71
2023/08/28 13:18:13;;;;;;;8.37;7.97;;;;;;;;;;5036884;28;20944;-72
2023/08/28 13:20:39;;;;;;;8.10;7.80;;;;;;;;;;5017929;28;20438;-73
2023/08/28 13:23:05;;;;;;;8.10;7.80;;;;;;;;;;5037113;28;20521;-73
2023/08/28 13:25:31;;;;;;;7.30;7.00;;;;;;;;;;5022565;28;20979;-71
2023/08/28 13:27:57;;;;;;;9.37;8.80;;;;;;;;;;5034306;28;20569;-74
2023/08/28 13:30:23;;;;;;;7.83;7.53;;;;;;;;;;5042931;28;20940;-73
2023/08/28 13:32:50;;;;;;;8.47;7.80;;;;;;;;;;5037023;28;20489;-72
2023/08/28 13:35:16;;;;;;;8.40;8.03;;;;;;;;;;5053695;28;20912;-73
2023/08/28 13:37:45;;;;;;;6.77;6.57;;;;;;;;;;5032685;28;20531;-72
2023/08/28 13:40:11;;;;;;;7.67;7.37;;;;;;;;;;5042266;28;20518;-72
2023/08/28 13:42:37;;;;;;;6.93;6.53;;;;;;;;;;5021584;28;20970;-72
2023/08/28 13:45:04;;;;;;;7.80;7.40;;;;;;;;;;5025867;28;20741;-72
2023/08/28 13:47:30;;;;;;;8.00;7.60;;;;;;;;;;5027492;28;20502;-74
2023/08/28 13:49:57;;;;;;;7.50;7.10;;;;;;;;;;5039997;28;20480;-72
2023/08/28 13:52:23;;;;;;;7.03;6.63;;;;;;;;;;5031462;28;20546;-73
2023/08/28 13:54:49;;;;;;;6.30;6.10;;;;;;;;;;5029898;28;20457;-74
2023/08/28 13:57:15;;;;;;;6.20;6.00;;;;;;;;;;5034063;28;20422;-73
2023/08/28 13:59:41;;;;;;;7.17;6.67;;;;;;;;;;5038005;28;20441;-73
2023/08/28 14:02:07;;;;;;;6.10;5.90;;;;;;;;;;5034035;28;20448;-72
2023/08/28 14:04:34;;;;;;;6.20;6.00;;;;;;;;;;5037808;28;20446;-73
2023/08/28 14:07:00;;;;;;;6.37;6.17;;;;;;;;;;5026807;28;20792;-72
2023/08/28 14:09:26;;;;;;;6.20;6.00;;;;;;;;;;5033420;28;20428;-72
2023/08/28 14:11:52;;;;;;;6.30;5.93;;;;;;;;;;5031938;28;20695;-72
2023/08/28 14:14:18;;;;;;;6.47;6.17;;;;;;;;;;5032062;28;20544;-72
2023/08/28 14:16:44;;;;;;;5.00;4.90;;;;;;;;;;5032401;28;20805;-71
2023/08/28 14:19:10;;;;;;;6.03;5.63;;;;;;;;;;5032524;28;20433;-71
2023/08/28 14:21:36;;;;;;;6.20;5.90;;;;;;;;;;5028225;28;20443;-72
2023/08/28 14:24:02;;;;;;;6.87;6.57;;;;;;;;;;5021044;28;20847;-72
2023/08/28 14:26:29;;;;;;;6.67;6.27;;;;;;;;;;5033165;28;20457;-70
2023/08/28 14:28:55;;;;;;;7.47;7.03;;;;;;;;;;5036712;28;20530;-72
2023/08/28 14:31:21;;;;;;;6.97;6.67;;;;;;;;;;5017600;28;20995;-72
2023/08/28 14:33:47;;;;;;;6.93;6.70;;;;;;;;;;5029414;28;20438;-72
2023/08/28 14:36:13;;;;;;;7.33;7.03;;;;;;;;;;5033318;28;20565;-72